createdAt,value
2022-10-09T00:04:05.755Z,1.90
2022-10-09T00:09:09.312Z,2.13
2022-10-09T00:14:14.485Z,2.00
2022-10-09T00:19:17.994Z,2.00
2022-10-09T00:24:21.563Z,2.33
2022-10-09T00:29:26.782Z,2.30
2022-10-09T00:34:30.328Z,2.50
2022-10-09T00:39:34.163Z,2.30
2022-10-09T00:44:54.949Z,2.80
2022-10-09T00:50:03.062Z,2.28
2022-10-09T00:55:08.918Z,2.30
2022-10-09T01:00:15.270Z,2.20
2022-10-09T01:05:19.175Z,2.40
2022-10-09T01:10:30.151Z,2.53
2022-10-09T01:15:43.344Z,3.00
2022-10-09T01:20:52.620Z,2.50
2022-10-09T01:26:05.943Z,2.72
2022-10-09T01:31:12.732Z,2.50
2022-10-09T01:36:18.610Z,5.68
2022-10-09T01:41:22.368Z,2.60
2022-10-09T01:46:30.492Z,2.38
2022-10-09T01:51:40.624Z,2.80
2022-10-09T01:56:48.641Z,3.92
2022-10-09T02:01:54.887Z,3.70
2022-10-09T02:06:58.650Z,3.47
2022-10-09T02:12:08.144Z,3.30
2022-10-09T02:17:17.907Z,3.08
2022-10-09T02:22:25.330Z,2.97
2022-10-09T02:27:29.553Z,3.00
2022-10-09T02:32:34.750Z,2.83
2022-10-09T02:37:38.303Z,3.15
2022-10-09T02:42:42.562Z,2.90
2022-10-09T02:47:47.733Z,2.67
2022-10-09T02:52:51.555Z,2.67
2022-10-09T02:57:55.181Z,2.80
2022-10-09T03:03:00.470Z,3.05
2022-10-09T03:08:04.625Z,2.80
2022-10-09T03:13:08.816Z,2.88
2022-10-09T03:18:14.016Z,3.20
2022-10-09T03:23:17.544Z,3.03
2022-10-09T03:28:21.145Z,3.08
2022-10-09T03:33:26.365Z,3.10
2022-10-09T03:38:30.173Z,2.83
2022-10-09T03:43:34.380Z,3.30
2022-10-09T03:48:39.611Z,2.90
2022-10-09T03:53:43.160Z,2.90
2022-10-09T03:58:46.692Z,3.45
2022-10-09T04:03:51.896Z,2.90
2022-10-09T04:08:55.465Z,3.30
2022-10-09T04:13:59.006Z,2.75
2022-10-09T04:19:04.209Z,2.90
2022-10-09T04:24:07.869Z,2.97
2022-10-09T04:29:12.446Z,3.00
2022-10-09T04:34:17.609Z,2.97
2022-10-09T04:39:21.140Z,3.03
2022-10-09T04:44:24.694Z,3.00
2022-10-09T04:49:29.946Z,2.83
2022-10-09T04:54:33.493Z,3.10
2022-10-09T04:59:37.053Z,3.13
2022-10-09T05:04:42.198Z,2.92
2022-10-09T05:09:45.770Z,3.10
2022-10-09T05:14:49.318Z,3.00
2022-10-09T05:19:54.499Z,3.08
2022-10-09T05:24:58.045Z,2.93
2022-10-09T05:30:02.301Z,3.03
2022-10-09T05:35:08.285Z,3.30
2022-10-09T05:40:11.991Z,3.22
2022-10-09T05:45:15.647Z,2.80
2022-10-09T05:50:22.323Z,2.97
2022-10-09T05:55:26.921Z,3.00
2022-10-09T06:00:30.855Z,3.10
2022-10-09T06:05:36.959Z,2.72
2022-10-09T06:10:40.524Z,2.70
2022-10-09T06:15:54.096Z,2.88
2022-10-09T06:21:00.744Z,2.90
2022-10-09T06:26:06.393Z,2.78
2022-10-09T06:31:12.168Z,2.65
2022-10-09T06:41:22.319Z,2.85
2022-10-09T06:46:28.541Z,2.70
2022-10-09T06:51:34.441Z,2.50
2022-10-09T07:01:40.968Z,2.70
2022-10-09T07:06:46.896Z,2.80
2022-10-09T07:16:53.397Z,2.75
2022-10-09T07:21:58.564Z,2.35
2022-10-09T07:27:02.106Z,2.60
2022-10-09T07:32:10.199Z,2.78
2022-10-09T07:37:15.740Z,2.72
2022-10-09T07:42:19.270Z,2.67
2022-10-09T07:47:22.793Z,2.88
2022-10-09T07:52:27.964Z,2.80
2022-10-09T07:57:31.480Z,2.80
2022-10-09T08:02:35.063Z,2.80
2022-10-09T08:07:40.266Z,3.13
2022-10-09T08:12:43.846Z,2.43
2022-10-09T08:17:47.419Z,2.80
2022-10-09T08:22:52.664Z,2.60
2022-10-09T08:27:56.540Z,2.90
2022-10-09T08:33:00.060Z,2.78
2022-10-09T08:38:05.312Z,2.40
2022-10-09T08:43:14.295Z,2.80
2022-10-09T08:48:21.064Z,2.60
2022-10-09T08:53:38.926Z,2.80
2022-10-09T08:58:44.310Z,2.78
2022-10-09T09:04:00.195Z,2.80
2022-10-09T09:09:15.807Z,2.60
2022-10-09T09:14:48.137Z,2.60
2022-10-09T09:20:03.981Z,2.70
2022-10-09T09:25:19.096Z,2.45
2022-10-09T09:30:28.267Z,2.55
2022-10-09T09:35:40.629Z,2.50
2022-10-09T09:40:47.290Z,2.70
2022-10-09T09:45:54.730Z,2.60
2022-10-09T09:51:16.285Z,2.58
2022-10-09T09:56:53.172Z,2.40
2022-10-09T10:02:11.405Z,2.53
2022-10-09T10:07:14.986Z,2.50
2022-10-09T10:12:20.494Z,2.30
2022-10-09T10:17:31.137Z,2.42
2022-10-09T10:22:35.528Z,2.63
2022-10-09T10:27:44.094Z,2.40
2022-10-09T10:32:56.538Z,2.30
2022-10-09T10:38:06.531Z,2.20
2022-10-09T10:43:28.761Z,2.35
2022-10-09T10:48:35.097Z,2.30
2022-10-09T10:54:00.447Z,2.05
2022-10-09T10:59:24.375Z,2.15
2022-10-09T11:04:45.300Z,2.30
2022-10-09T11:09:59.661Z,2.10
2022-10-09T11:15:15.762Z,2.20
2022-10-09T11:20:51.248Z,2.10
2022-10-09T11:26:04.854Z,2.00
2022-10-09T11:31:14.133Z,2.00
2022-10-09T11:36:23.628Z,1.90
2022-10-09T11:41:28.430Z,1.88
2022-10-09T11:46:45.510Z,2.05
2022-10-09T11:51:55.801Z,1.70
2022-10-09T11:57:01.221Z,2.25
2022-10-09T12:02:26.032Z,2.13
2022-10-09T12:07:33.131Z,2.13
2022-10-09T12:12:37.255Z,1.95
2022-10-09T12:17:49.251Z,1.85
2022-10-09T12:23:14.372Z,1.77
2022-10-09T12:28:30.285Z,1.85
2022-10-09T12:33:42.372Z,2.05
2022-10-09T12:38:46.083Z,1.92
2022-10-09T12:43:51.963Z,2.00
2022-10-09T12:48:57.387Z,1.85
2022-10-09T12:54:01.003Z,1.60
2022-10-09T12:59:05.199Z,1.85
2022-10-09T13:04:26.666Z,1.77
2022-10-09T13:09:36.093Z,2.00
2022-10-09T13:14:45.484Z,1.85
2022-10-09T13:19:54.765Z,2.20
2022-10-09T13:25:00.074Z,2.28
2022-10-09T13:30:03.754Z,1.77
2022-10-09T13:35:09.782Z,2.00
2022-10-09T13:40:16.065Z,2.00
2022-10-09T13:45:19.702Z,2.10
2022-10-09T13:50:24.877Z,2.20
2022-10-09T13:55:28.495Z,1.75
2022-10-09T14:00:32.027Z,2.00
2022-10-09T14:05:37.287Z,2.05
2022-10-09T14:10:42.755Z,1.77
2022-10-09T14:15:46.289Z,2.13
2022-10-09T14:20:51.551Z,2.10
2022-10-09T14:25:55.135Z,1.90
2022-10-09T14:30:58.766Z,2.10
2022-10-09T14:36:08.942Z,2.00
2022-10-09T14:41:13.316Z,2.05
2022-10-09T14:46:18.405Z,2.20
2022-10-09T14:51:25.596Z,2.08
2022-10-09T14:56:29.808Z,2.22
2022-10-09T15:01:33.886Z,1.88
2022-10-09T15:06:39.045Z,2.20
2022-10-09T15:11:42.626Z,2.20
2022-10-09T15:16:46.138Z,2.30
2022-10-09T15:21:51.255Z,2.30
2022-10-09T15:26:54.787Z,2.28
2022-10-09T15:31:58.280Z,2.30
2022-10-09T15:37:03.435Z,2.10
2022-10-09T15:42:07.058Z,2.20
2022-10-09T15:47:13.617Z,2.17
2022-10-09T15:52:21.562Z,2.20
2022-10-09T15:57:25.081Z,1.97
2022-10-09T16:02:28.643Z,1.55
2022-10-09T16:07:33.786Z,1.33
2022-10-09T16:12:37.333Z,1.60
2022-10-09T16:17:40.890Z,1.20
2022-10-09T16:22:46.058Z,1.30
2022-10-09T16:27:49.609Z,1.33
2022-10-09T16:32:53.261Z,1.35
2022-10-09T16:37:58.607Z,1.27
2022-10-09T16:43:02.168Z,1.40
2022-10-09T16:48:05.772Z,1.40
2022-10-09T16:53:10.962Z,1.40
2022-10-09T16:58:14.499Z,1.85
2022-10-09T17:03:18.034Z,1.20
2022-10-09T17:08:23.258Z,1.50
2022-10-09T17:13:26.802Z,1.33
2022-10-09T17:18:30.359Z,1.23
2022-10-09T17:23:36.061Z,1.20
2022-10-09T17:28:41.878Z,0.98
2022-10-09T17:33:46.488Z,1.02
2022-10-09T17:38:52.506Z,1.20
2022-10-09T17:43:57.191Z,1.13
2022-10-09T17:49:00.834Z,1.17
2022-10-09T17:54:10.981Z,1.20
2022-10-09T17:59:15.842Z,1.40
2022-10-09T18:04:19.395Z,1.40
2022-10-09T18:09:24.593Z,1.20
2022-10-09T18:14:28.145Z,1.08
2022-10-09T18:19:31.702Z,1.10
2022-10-09T18:24:36.901Z,0.90
2022-10-09T18:29:40.479Z,1.10
2022-10-09T18:34:46.451Z,1.10
2022-10-09T18:39:51.901Z,1.20
2022-10-09T18:44:55.435Z,0.90
2022-10-09T18:50:01.545Z,1.13
2022-10-09T18:55:09.641Z,0.85
2022-10-09T19:00:14.514Z,1.00
2022-10-09T19:05:18.155Z,1.20
2022-10-09T19:10:23.325Z,1.10
2022-10-09T19:15:26.860Z,0.80
2022-10-09T19:20:30.399Z,1.20
2022-10-09T19:25:36.500Z,0.82
2022-10-09T19:30:41.170Z,0.90
2022-10-09T19:35:49.348Z,1.30
2022-10-09T19:40:54.746Z,0.82
2022-10-09T19:46:02.961Z,1.00
2022-10-09T19:51:07.956Z,1.40
2022-10-09T19:56:14.755Z,0.85
2022-10-09T20:01:20.383Z,0.90
2022-10-09T20:06:23.980Z,1.15
2022-10-09T20:11:29.414Z,1.20
2022-10-09T20:21:36.753Z,1.42
2022-10-09T20:26:43.257Z,0.90
2022-10-09T20:31:47.009Z,0.90
2022-10-09T20:36:50.578Z,1.05
2022-10-09T20:41:55.748Z,1.20
2022-10-09T20:52:02.779Z,1.10
2022-10-09T20:57:07.980Z,0.82
2022-10-09T21:07:17.302Z,1.10
2022-10-09T21:12:22.486Z,1.20
2022-10-09T21:22:28.828Z,1.13
2022-10-09T21:27:34.011Z,1.10
2022-10-09T21:37:40.407Z,1.20
2022-10-09T21:42:45.733Z,1.13
2022-10-09T21:47:49.267Z,1.20
2022-10-09T21:52:54.921Z,1.42
2022-10-09T21:58:00.114Z,1.40
2022-10-09T22:03:03.744Z,1.20
2022-10-09T22:08:07.296Z,1.38
2022-10-09T22:13:12.532Z,1.35
2022-10-09T22:18:16.509Z,1.48
2022-10-09T22:23:21.315Z,1.15
2022-10-09T22:28:26.657Z,1.45
2022-10-09T22:33:30.830Z,1.50
2022-10-09T22:38:34.626Z,1.88
2022-10-09T22:43:40.664Z,1.88
2022-10-09T22:48:45.467Z,1.33
2022-10-09T22:53:49.319Z,1.40
2022-10-09T22:58:55.145Z,1.60
2022-10-09T23:03:59.214Z,1.50
2022-10-09T23:09:04.479Z,1.70
2022-10-09T23:14:11.293Z,1.77
2022-10-09T23:19:14.900Z,2.00
2022-10-09T23:24:18.491Z,1.80
2022-10-09T23:29:24.586Z,1.90
2022-10-09T23:34:28.129Z,1.75
2022-10-09T23:39:31.641Z,1.90
2022-10-09T23:44:36.823Z,1.70
2022-10-09T23:54:43.290Z,1.60
2022-10-09T23:59:48.484Z,2.17
